sensor_id;sensor_type;location;lat;lon;timestamp;temperature;humidity
15113;DHT22;7657;50.140;7.076;2023-06-14T00:00:42;20.30;48.50
15113;DHT22;7657;50.140;7.076;2023-06-14T00:03:10;20.30;48.70
15113;DHT22;7657;50.140;7.076;2023-06-14T00:05:37;20.20;48.90
15113;DHT22;7657;50.140;7.076;2023-06-14T00:08:08;20.20;49.20
15113;DHT22;7657;50.140;7.076;2023-06-14T00:10:35;20.10;49.50
15113;DHT22;7657;50.140;7.076;2023-06-14T00:13:04;20.10;49.70
15113;DHT22;7657;50.140;7.076;2023-06-14T00:15:33;20.00;49.90
15113;DHT22;7657;50.140;7.076;2023-06-14T00:18:00;20.00;50.20
15113;DHT22;7657;50.140;7.076;2023-06-14T00:20:27;19.90;50.40
15113;DHT22;7657;50.140;7.076;2023-06-14T00:22:54;19.80;50.60
15113;DHT22;7657;50.140;7.076;2023-06-14T00:25:22;19.70;50.90
15113;DHT22;7657;50.140;7.076;2023-06-14T00:27:49;19.70;51.00
15113;DHT22;7657;50.140;7.076;2023-06-14T00:30:17;19.70;51.20
15113;DHT22;7657;50.140;7.076;2023-06-14T00:32:45;19.80;51.40
15113;DHT22;7657;50.140;7.076;2023-06-14T00:35:12;19.80;51.50
15113;DHT22;7657;50.140;7.076;2023-06-14T00:37:39;19.70;51.50
15113;DHT22;7657;50.140;7.076;2023-06-14T00:40:07;19.80;51.80
15113;DHT22;7657;50.140;7.076;2023-06-14T00:42:33;19.80;51.80
15113;DHT22;7657;50.140;7.076;2023-06-14T00:45:00;19.80;51.90
15113;DHT22;7657;50.140;7.076;2023-06-14T00:47:29;19.80;52.70
15113;DHT22;7657;50.140;7.076;2023-06-14T00:49:56;19.80;52.30
15113;DHT22;7657;50.140;7.076;2023-06-14T00:52:23;19.80;52.40
15113;DHT22;7657;50.140;7.076;2023-06-14T00:54:51;19.80;52.60
15113;DHT22;7657;50.140;7.076;2023-06-14T00:57:17;19.70;52.50
15113;DHT22;7657;50.140;7.076;2023-06-14T00:59:48;19.70;52.70
15113;DHT22;7657;50.140;7.076;2023-06-14T01:02:15;19.60;52.80
15113;DHT22;7657;50.140;7.076;2023-06-14T01:04:46;19.60;52.90
15113;DHT22;7657;50.140;7.076;2023-06-14T01:07:22;19.60;53.10
15113;DHT22;7657;50.140;7.076;2023-06-14T01:10:00;19.40;53.40
15113;DHT22;7657;50.140;7.076;2023-06-14T01:12:33;19.40;53.60
15113;DHT22;7657;50.140;7.076;2023-06-14T01:15:03;19.40;53.80
15113;DHT22;7657;50.140;7.076;2023-06-14T01:17:30;19.40;54.00
15113;DHT22;7657;50.140;7.076;2023-06-14T01:20:01;19.30;54.00
15113;DHT22;7657;50.140;7.076;2023-06-14T01:22:29;19.30;54.20
15113;DHT22;7657;50.140;7.076;2023-06-14T01:24:57;19.20;54.40
15113;DHT22;7657;50.140;7.076;2023-06-14T01:27:25;19.20;54.70
15113;DHT22;7657;50.140;7.076;2023-06-14T01:29:55;19.10;54.90
15113;DHT22;7657;50.140;7.076;2023-06-14T01:32:23;19.00;54.90
15113;DHT22;7657;50.140;7.076;2023-06-14T01:34:51;19.10;55.10
15113;DHT22;7657;50.140;7.076;2023-06-14T01:37:19;19.10;55.10
15113;DHT22;7657;50.140;7.076;2023-06-14T01:39:47;19.10;55.10
15113;DHT22;7657;50.140;7.076;2023-06-14T01:42:16;19.10;55.30
15113;DHT22;7657;50.140;7.076;2023-06-14T01:44:44;19.10;55.40
15113;DHT22;7657;50.140;7.076;2023-06-14T01:47:11;19.10;55.40
15113;DHT22;7657;50.140;7.076;2023-06-14T01:49:38;19.10;55.50
15113;DHT22;7657;50.140;7.076;2023-06-14T01:52:06;19.10;55.60
15113;DHT22;7657;50.140;7.076;2023-06-14T01:54:35;19.10;55.60
15113;DHT22;7657;50.140;7.076;2023-06-14T01:57:07;19.10;55.80
15113;DHT22;7657;50.140;7.076;2023-06-14T01:59:37;19.00;56.00
15113;DHT22;7657;50.140;7.076;2023-06-14T02:02:04;18.90;56.10
15113;DHT22;7657;50.140;7.076;2023-06-14T02:04:31;18.90;56.30
15113;DHT22;7657;50.140;7.076;2023-06-14T02:06:58;18.90;56.50
15113;DHT22;7657;50.140;7.076;2023-06-14T02:09:25;18.90;56.50
15113;DHT22;7657;50.140;7.076;2023-06-14T02:11:52;18.90;56.60
15113;DHT22;7657;50.140;7.076;2023-06-14T02:14:19;18.90;56.70
15113;DHT22;7657;50.140;7.076;2023-06-14T02:16:47;18.90;56.90
15113;DHT22;7657;50.140;7.076;2023-06-14T02:19:15;18.80;57.10
15113;DHT22;7657;50.140;7.076;2023-06-14T02:21:42;18.90;57.20
15113;DHT22;7657;50.140;7.076;2023-06-14T02:24:09;18.90;57.10
15113;DHT22;7657;50.140;7.076;2023-06-14T02:26:36;18.90;57.30
15113;DHT22;7657;50.140;7.076;2023-06-14T02:29:04;18.90;57.30
15113;DHT22;7657;50.140;7.076;2023-06-14T02:31:31;18.90;57.50
15113;DHT22;7657;50.140;7.076;2023-06-14T02:34:00;18.90;57.60
15113;DHT22;7657;50.140;7.076;2023-06-14T02:36:26;18.80;57.70
15113;DHT22;7657;50.140;7.076;2023-06-14T02:38:55;18.80;57.70
15113;DHT22;7657;50.140;7.076;2023-06-14T02:41:23;18.80;57.70
15113;DHT22;7657;50.140;7.076;2023-06-14T02:43:50;18.80;57.80
15113;DHT22;7657;50.140;7.076;2023-06-14T02:46:16;18.80;57.90
15113;DHT22;7657;50.140;7.076;2023-06-14T02:48:43;18.90;57.90
15113;DHT22;7657;50.140;7.076;2023-06-14T02:51:12;18.80;58.50
15113;DHT22;7657;50.140;7.076;2023-06-14T02:53:38;18.80;58.60
15113;DHT22;7657;50.140;7.076;2023-06-14T02:56:06;18.60;58.70
15113;DHT22;7657;50.140;7.076;2023-06-14T02:58:34;18.60;58.80
15113;DHT22;7657;50.140;7.076;2023-06-14T03:01:00;18.70;58.90
15113;DHT22;7657;50.140;7.076;2023-06-14T03:03:29;18.70;59.00
15113;DHT22;7657;50.140;7.076;2023-06-14T03:05:56;18.60;59.30
15113;DHT22;7657;50.140;7.076;2023-06-14T03:08:24;18.60;59.60
15113;DHT22;7657;50.140;7.076;2023-06-14T03:10:53;18.60;59.80
15113;DHT22;7657;50.140;7.076;2023-06-14T03:13:21;18.50;60.50
15113;DHT22;7657;50.140;7.076;2023-06-14T03:15:48;18.50;59.60
15113;DHT22;7657;50.140;7.076;2023-06-14T03:18:16;18.50;59.50
15113;DHT22;7657;50.140;7.076;2023-06-14T03:20:43;18.40;59.60
15113;DHT22;7657;50.140;7.076;2023-06-14T03:23:12;18.40;59.70
15113;DHT22;7657;50.140;7.076;2023-06-14T03:25:40;18.40;59.70
15113;DHT22;7657;50.140;7.076;2023-06-14T03:28:07;18.30;59.90
15113;DHT22;7657;50.140;7.076;2023-06-14T03:30:34;18.30;60.10
15113;DHT22;7657;50.140;7.076;2023-06-14T03:33:01;18.20;60.40
15113;DHT22;7657;50.140;7.076;2023-06-14T03:35:29;18.20;60.60
15113;DHT22;7657;50.140;7.076;2023-06-14T03:37:55;18.20;60.50
15113;DHT22;7657;50.140;7.076;2023-06-14T03:40:22;18.20;60.70
15113;DHT22;7657;50.140;7.076;2023-06-14T03:42:53;18.30;60.80
15113;DHT22;7657;50.140;7.076;2023-06-14T03:45:20;18.20;60.80
15113;DHT22;7657;50.140;7.076;2023-06-14T03:47:47;18.20;61.10
15113;DHT22;7657;50.140;7.076;2023-06-14T03:50:14;18.10;61.20
15113;DHT22;7657;50.140;7.076;2023-06-14T03:52:41;18.20;61.40
15113;DHT22;7657;50.140;7.076;2023-06-14T03:55:09;18.20;61.30
15113;DHT22;7657;50.140;7.076;2023-06-14T03:57:38;18.10;61.50
15113;DHT22;7657;50.140;7.076;2023-06-14T04:00:08;18.20;61.80
15113;DHT22;7657;50.140;7.076;2023-06-14T04:02:36;18.10;61.90
15113;DHT22;7657;50.140;7.076;2023-06-14T04:05:03;18.10;62.20
15113;DHT22;7657;50.140;7.076;2023-06-14T04:07:31;18.10;62.40
15113;DHT22;7657;50.140;7.076;2023-06-14T04:09:57;18.00;62.70
15113;DHT22;7657;50.140;7.076;2023-06-14T04:12:24;18.00;63.00
15113;DHT22;7657;50.140;7.076;2023-06-14T04:14:51;18.00;63.00
15113;DHT22;7657;50.140;7.076;2023-06-14T04:17:19;17.90;63.30
15113;DHT22;7657;50.140;7.076;2023-06-14T04:19:46;17.90;63.50
15113;DHT22;7657;50.140;7.076;2023-06-14T04:22:13;18.00;63.70
15113;DHT22;7657;50.140;7.076;2023-06-14T04:24:40;17.90;63.70
15113;DHT22;7657;50.140;7.076;2023-06-14T04:27:08;18.00;63.80
15113;DHT22;7657;50.140;7.076;2023-06-14T04:29:35;18.00;63.70
15113;DHT22;7657;50.140;7.076;2023-06-14T04:32:02;18.00;64.10
15113;DHT22;7657;50.140;7.076;2023-06-14T04:34:31;18.00;64.20
15113;DHT22;7657;50.140;7.076;2023-06-14T04:36:59;18.00;64.20
15113;DHT22;7657;50.140;7.076;2023-06-14T04:39:26;17.90;64.40
15113;DHT22;7657;50.140;7.076;2023-06-14T04:41:53;17.80;64.70
15113;DHT22;7657;50.140;7.076;2023-06-14T04:44:22;17.80;65.40
15113;DHT22;7657;50.140;7.076;2023-06-14T04:46:55;17.80;65.30
15113;DHT22;7657;50.140;7.076;2023-06-14T04:49:24;17.90;66.30
15113;DHT22;7657;50.140;7.076;2023-06-14T04:51:53;17.90;66.20
15113;DHT22;7657;50.140;7.076;2023-06-14T04:54:23;17.90;66.10
15113;DHT22;7657;50.140;7.076;2023-06-14T04:56:51;17.80;66.40
15113;DHT22;7657;50.140;7.076;2023-06-14T04:59:18;17.90;66.90
15113;DHT22;7657;50.140;7.076;2023-06-14T05:01:45;18.00;67.10
15113;DHT22;7657;50.140;7.076;2023-06-14T05:04:13;18.00;67.10
15113;DHT22;7657;50.140;7.076;2023-06-14T05:06:41;18.00;67.40
15113;DHT22;7657;50.140;7.076;2023-06-14T05:09:12;18.10;67.20
15113;DHT22;7657;50.140;7.076;2023-06-14T05:11:39;18.10;67.90
15113;DHT22;7657;50.140;7.076;2023-06-14T05:14:08;18.10;67.80
15113;DHT22;7657;50.140;7.076;2023-06-14T05:16:34;18.00;67.80
15113;DHT22;7657;50.140;7.076;2023-06-14T05:19:02;17.90;69.30
15113;DHT22;7657;50.140;7.076;2023-06-14T05:21:29;18.00;69.70
15113;DHT22;7657;50.140;7.076;2023-06-14T05:23:57;17.80;70.00
15113;DHT22;7657;50.140;7.076;2023-06-14T05:26:26;17.80;70.00
15113;DHT22;7657;50.140;7.076;2023-06-14T05:28:54;17.80;70.50
15113;DHT22;7657;50.140;7.076;2023-06-14T05:31:22;17.90;70.80
15113;DHT22;7657;50.140;7.076;2023-06-14T05:33:49;17.80;71.20
15113;DHT22;7657;50.140;7.076;2023-06-14T05:36:16;17.90;71.30
15113;DHT22;7657;50.140;7.076;2023-06-14T05:38:43;17.90;72.20
15113;DHT22;7657;50.140;7.076;2023-06-14T05:41:10;17.80;71.60
15113;DHT22;7657;50.140;7.076;2023-06-14T05:43:38;17.90;72.40
15113;DHT22;7657;50.140;7.076;2023-06-14T05:46:05;17.80;73.50
15113;DHT22;7657;50.140;7.076;2023-06-14T05:48:32;17.90;72.90
15113;DHT22;7657;50.140;7.076;2023-06-14T05:50:59;18.00;73.60
15113;DHT22;7657;50.140;7.076;2023-06-14T05:53:26;18.10;73.40
15113;DHT22;7657;50.140;7.076;2023-06-14T05:55:53;18.10;73.10
15113;DHT22;7657;50.140;7.076;2023-06-14T05:58:20;18.10;73.30
15113;DHT22;7657;50.140;7.076;2023-06-14T06:00:48;18.20;74.10
15113;DHT22;7657;50.140;7.076;2023-06-14T06:03:16;18.10;73.30
15113;DHT22;7657;50.140;7.076;2023-06-14T06:05:43;18.10;73.20
15113;DHT22;7657;50.140;7.076;2023-06-14T06:08:10;18.20;74.80
15113;DHT22;7657;50.140;7.076;2023-06-14T06:10:36;18.20;74.10
15113;DHT22;7657;50.140;7.076;2023-06-14T06:13:03;18.10;75.00
15113;DHT22;7657;50.140;7.076;2023-06-14T06:15:30;18.20;75.70
15113;DHT22;7657;50.140;7.076;2023-06-14T06:17:59;18.20;75.50
15113;DHT22;7657;50.140;7.076;2023-06-14T06:20:25;18.20;76.30
15113;DHT22;7657;50.140;7.076;2023-06-14T06:22:54;18.20;75.40
15113;DHT22;7657;50.140;7.076;2023-06-14T06:25:21;18.20;77.90
15113;DHT22;7657;50.140;7.076;2023-06-14T06:27:51;18.30;77.80
15113;DHT22;7657;50.140;7.076;2023-06-14T06:30:19;18.30;77.50
15113;DHT22;7657;50.140;7.076;2023-06-14T06:32:46;18.30;77.00
15113;DHT22;7657;50.140;7.076;2023-06-14T06:35:14;18.30;77.80
15113;DHT22;7657;50.140;7.076;2023-06-14T06:37:41;18.30;77.50
15113;DHT22;7657;50.140;7.076;2023-06-14T06:40:09;18.10;77.90
15113;DHT22;7657;50.140;7.076;2023-06-14T06:42:36;18.10;78.80
15113;DHT22;7657;50.140;7.076;2023-06-14T06:45:03;18.20;80.50
15113;DHT22;7657;50.140;7.076;2023-06-14T06:47:30;18.20;78.40
15113;DHT22;7657;50.140;7.076;2023-06-14T06:49:57;18.20;79.60
15113;DHT22;7657;50.140;7.076;2023-06-14T06:52:25;18.20;80.80
15113;DHT22;7657;50.140;7.076;2023-06-14T06:54:52;18.30;79.80
15113;DHT22;7657;50.140;7.076;2023-06-14T06:57:20;18.30;79.60
15113;DHT22;7657;50.140;7.076;2023-06-14T06:59:48;18.30;79.00
15113;DHT22;7657;50.140;7.076;2023-06-14T07:02:15;18.30;79.70
15113;DHT22;7657;50.140;7.076;2023-06-14T07:04:42;18.40;80.70
15113;DHT22;7657;50.140;7.076;2023-06-14T07:07:09;18.40;81.50
15113;DHT22;7657;50.140;7.076;2023-06-14T07:09:37;18.40;79.60
15113;DHT22;7657;50.140;7.076;2023-06-14T07:12:05;18.40;80.00
15113;DHT22;7657;50.140;7.076;2023-06-14T07:14:32;18.40;82.00
15113;DHT22;7657;50.140;7.076;2023-06-14T07:16:59;18.50;81.90
15113;DHT22;7657;50.140;7.076;2023-06-14T07:19:26;18.40;81.00
15113;DHT22;7657;50.140;7.076;2023-06-14T07:21:52;18.50;82.40
15113;DHT22;7657;50.140;7.076;2023-06-14T07:24:19;18.50;80.10
15113;DHT22;7657;50.140;7.076;2023-06-14T07:26:49;18.50;81.20
15113;DHT22;7657;50.140;7.076;2023-06-14T07:29:16;18.60;82.70
15113;DHT22;7657;50.140;7.076;2023-06-14T07:31:43;18.60;85.90
15113;DHT22;7657;50.140;7.076;2023-06-14T07:34:09;18.70;82.50
15113;DHT22;7657;50.140;7.076;2023-06-14T07:36:36;18.60;83.10
15113;DHT22;7657;50.140;7.076;2023-06-14T07:39:04;18.70;83.90
15113;DHT22;7657;50.140;7.076;2023-06-14T07:41:31;18.70;83.10
15113;DHT22;7657;50.140;7.076;2023-06-14T07:44:00;18.60;84.10
15113;DHT22;7657;50.140;7.076;2023-06-14T07:46:27;18.60;84.20
15113;DHT22;7657;50.140;7.076;2023-06-14T07:48:53;18.70;85.80
15113;DHT22;7657;50.140;7.076;2023-06-14T07:51:21;18.70;84.80
15113;DHT22;7657;50.140;7.076;2023-06-14T07:53:48;18.60;84.70
15113;DHT22;7657;50.140;7.076;2023-06-14T07:56:15;18.60;84.20
15113;DHT22;7657;50.140;7.076;2023-06-14T07:58:42;18.70;85.30
15113;DHT22;7657;50.140;7.076;2023-06-14T08:01:10;18.70;84.20
15113;DHT22;7657;50.140;7.076;2023-06-14T08:03:37;18.80;86.80
15113;DHT22;7657;50.140;7.076;2023-06-14T08:06:06;18.90;88.50
15113;DHT22;7657;50.140;7.076;2023-06-14T08:08:33;18.90;85.40
15113;DHT22;7657;50.140;7.076;2023-06-14T08:11:00;19.00;87.20
15113;DHT22;7657;50.140;7.076;2023-06-14T08:13:27;19.10;84.70
15113;DHT22;7657;50.140;7.076;2023-06-14T08:15:54;19.00;83.00
15113;DHT22;7657;50.140;7.076;2023-06-14T08:18:24;19.00;82.20
15113;DHT22;7657;50.140;7.076;2023-06-14T08:20:51;19.00;82.60
15113;DHT22;7657;50.140;7.076;2023-06-14T08:23:19;19.00;81.20
15113;DHT22;7657;50.140;7.076;2023-06-14T08:25:47;19.00;81.60
15113;DHT22;7657;50.140;7.076;2023-06-14T08:28:14;19.00;81.10
15113;DHT22;7657;50.140;7.076;2023-06-14T08:30:42;19.00;80.20
15113;DHT22;7657;50.140;7.076;2023-06-14T08:33:09;19.10;80.70
15113;DHT22;7657;50.140;7.076;2023-06-14T08:35:37;19.10;78.20
15113;DHT22;7657;50.140;7.076;2023-06-14T08:38:05;19.10;80.10
15113;DHT22;7657;50.140;7.076;2023-06-14T08:40:37;19.20;80.40
15113;DHT22;7657;50.140;7.076;2023-06-14T08:43:04;19.20;78.70
15113;DHT22;7657;50.140;7.076;2023-06-14T08:45:32;19.20;79.00
15113;DHT22;7657;50.140;7.076;2023-06-14T08:47:59;19.20;77.90
15113;DHT22;7657;50.140;7.076;2023-06-14T08:50:27;19.20;78.90
15113;DHT22;7657;50.140;7.076;2023-06-14T08:52:58;19.20;79.30
15113;DHT22;7657;50.140;7.076;2023-06-14T08:55:28;19.20;76.40
15113;DHT22;7657;50.140;7.076;2023-06-14T08:57:56;19.30;77.00
15113;DHT22;7657;50.140;7.076;2023-06-14T09:00:24;19.30;75.10
15113;DHT22;7657;50.140;7.076;2023-06-14T09:02:52;19.30;77.00
15113;DHT22;7657;50.140;7.076;2023-06-14T09:05:23;19.30;75.90
15113;DHT22;7657;50.140;7.076;2023-06-14T09:07:50;19.40;77.30
15113;DHT22;7657;50.140;7.076;2023-06-14T09:10:21;19.40;74.60
15113;DHT22;7657;50.140;7.076;2023-06-14T09:12:48;19.40;74.40
15113;DHT22;7657;50.140;7.076;2023-06-14T09:15:15;19.40;75.20
15113;DHT22;7657;50.140;7.076;2023-06-14T09:17:42;19.40;76.70
15113;DHT22;7657;50.140;7.076;2023-06-14T09:20:10;19.40;77.40
15113;DHT22;7657;50.140;7.076;2023-06-14T09:22:43;19.50;78.60
15113;DHT22;7657;50.140;7.076;2023-06-14T09:25:10;19.60;81.00
15113;DHT22;7657;50.140;7.076;2023-06-14T09:27:39;19.60;81.40
15113;DHT22;7657;50.140;7.076;2023-06-14T09:30:10;19.60;75.50
15113;DHT22;7657;50.140;7.076;2023-06-14T09:32:38;19.70;74.60
15113;DHT22;7657;50.140;7.076;2023-06-14T09:35:06;19.80;75.80
15113;DHT22;7657;50.140;7.076;2023-06-14T09:37:34;19.70;73.40
15113;DHT22;7657;50.140;7.076;2023-06-14T09:40:04;19.80;75.20
15113;DHT22;7657;50.140;7.076;2023-06-14T09:42:33;19.80;72.30
15113;DHT22;7657;50.140;7.076;2023-06-14T09:45:03;19.90;72.20
15113;DHT22;7657;50.140;7.076;2023-06-14T09:47:30;19.80;72.70
15113;DHT22;7657;50.140;7.076;2023-06-14T09:49:57;19.90;72.70
15113;DHT22;7657;50.140;7.076;2023-06-14T09:52:26;20.00;72.70
15113;DHT22;7657;50.140;7.076;2023-06-14T09:54:55;20.00;74.00
15113;DHT22;7657;50.140;7.076;2023-06-14T09:57:23;20.00;73.70
15113;DHT22;7657;50.140;7.076;2023-06-14T09:59:54;20.00;71.80
15113;DHT22;7657;50.140;7.076;2023-06-14T10:02:28;20.00;71.80
15113;DHT22;7657;50.140;7.076;2023-06-14T10:05:03;20.00;71.80
15113;DHT22;7657;50.140;7.076;2023-06-14T10:07:35;20.00;70.90
15113;DHT22;7657;50.140;7.076;2023-06-14T10:10:02;20.00;71.40
15113;DHT22;7657;50.140;7.076;2023-06-14T10:12:30;20.00;71.10
15113;DHT22;7657;50.140;7.076;2023-06-14T10:14:58;20.10;71.50
15113;DHT22;7657;50.140;7.076;2023-06-14T10:17:35;20.10;69.60
15113;DHT22;7657;50.140;7.076;2023-06-14T10:20:21;20.20;69.70
15113;DHT22;7657;50.140;7.076;2023-06-14T10:22:56;20.20;70.80
15113;DHT22;7657;50.140;7.076;2023-06-14T10:25:28;20.20;72.20
15113;DHT22;7657;50.140;7.076;2023-06-14T10:28:17;20.20;72.30
15113;DHT22;7657;50.140;7.076;2023-06-14T10:31:06;20.20;73.10
15113;DHT22;7657;50.140;7.076;2023-06-14T10:33:35;20.30;70.30
15113;DHT22;7657;50.140;7.076;2023-06-14T10:36:20;20.30;71.40
15113;DHT22;7657;50.140;7.076;2023-06-14T10:39:00;20.40;69.10
15113;DHT22;7657;50.140;7.076;2023-06-14T10:41:28;20.50;70.40
15113;DHT22;7657;50.140;7.076;2023-06-14T10:46:59;20.50;71.30
15113;DHT22;7657;50.140;7.076;2023-06-14T10:49:39;20.50;70.40
15113;DHT22;7657;50.140;7.076;2023-06-14T10:52:10;20.50;71.30
15113;DHT22;7657;50.140;7.076;2023-06-14T10:55:03;20.50;70.10
15113;DHT22;7657;50.140;7.076;2023-06-14T10:57:31;20.50;70.80
15113;DHT22;7657;50.140;7.076;2023-06-14T10:59:59;20.60;70.30
15113;DHT22;7657;50.140;7.076;2023-06-14T11:05:28;20.70;70.80
15113;DHT22;7657;50.140;7.076;2023-06-14T11:08:04;20.70;69.60
15113;DHT22;7657;50.140;7.076;2023-06-14T11:10:38;20.70;69.70
15113;DHT22;7657;50.140;7.076;2023-06-14T11:13:06;20.80;71.70
15113;DHT22;7657;50.140;7.076;2023-06-14T11:15:34;20.80;71.60
15113;DHT22;7657;50.140;7.076;2023-06-14T11:18:02;20.90;73.00
15113;DHT22;7657;50.140;7.076;2023-06-14T11:20:32;20.90;67.20
15113;DHT22;7657;50.140;7.076;2023-06-14T11:22:59;20.90;66.10
15113;DHT22;7657;50.140;7.076;2023-06-14T11:25:26;20.90;67.00
15113;DHT22;7657;50.140;7.076;2023-06-14T11:27:54;20.90;67.20
15113;DHT22;7657;50.140;7.076;2023-06-14T11:30:22;20.80;65.40
15113;DHT22;7657;50.140;7.076;2023-06-14T11:32:50;20.90;66.90
15113;DHT22;7657;50.140;7.076;2023-06-14T11:35:17;20.90;64.80
15113;DHT22;7657;50.140;7.076;2023-06-14T11:37:46;20.80;65.80
15113;DHT22;7657;50.140;7.076;2023-06-14T11:40:13;20.80;67.70
15113;DHT22;7657;50.140;7.076;2023-06-14T11:42:41;20.90;70.00
15113;DHT22;7657;50.140;7.076;2023-06-14T11:45:09;21.00;70.00
15113;DHT22;7657;50.140;7.076;2023-06-14T11:47:37;21.00;68.40
15113;DHT22;7657;50.140;7.076;2023-06-14T11:50:06;21.00;68.10
15113;DHT22;7657;50.140;7.076;2023-06-14T11:52:34;21.10;68.90
15113;DHT22;7657;50.140;7.076;2023-06-14T11:55:03;21.10;69.90
15113;DHT22;7657;50.140;7.076;2023-06-14T11:57:34;21.20;68.80
15113;DHT22;7657;50.140;7.076;2023-06-14T12:00:03;21.20;69.50
15113;DHT22;7657;50.140;7.076;2023-06-14T12:02:33;21.20;67.40
15113;DHT22;7657;50.140;7.076;2023-06-14T12:05:04;21.30;69.80
15113;DHT22;7657;50.140;7.076;2023-06-14T12:07:33;21.40;68.30
15113;DHT22;7657;50.140;7.076;2023-06-14T12:10:09;21.40;70.00
15113;DHT22;7657;50.140;7.076;2023-06-14T12:12:37;21.50;70.50
15113;DHT22;7657;50.140;7.076;2023-06-14T12:15:06;21.60;67.80
15113;DHT22;7657;50.140;7.076;2023-06-14T12:17:34;21.70;67.10
15113;DHT22;7657;50.140;7.076;2023-06-14T12:20:05;21.60;64.90
15113;DHT22;7657;50.140;7.076;2023-06-14T12:22:36;21.60;66.00
15113;DHT22;7657;50.140;7.076;2023-06-14T12:25:04;21.70;68.30
15113;DHT22;7657;50.140;7.076;2023-06-14T12:27:32;21.80;68.40
15113;DHT22;7657;50.140;7.076;2023-06-14T12:30:00;21.90;67.80
15113;DHT22;7657;50.140;7.076;2023-06-14T12:32:28;21.90;69.60
15113;DHT22;7657;50.140;7.076;2023-06-14T12:34:55;22.00;68.20
15113;DHT22;7657;50.140;7.076;2023-06-14T12:37:22;22.10;65.70
15113;DHT22;7657;50.140;7.076;2023-06-14T12:39:49;22.10;64.60
15113;DHT22;7657;50.140;7.076;2023-06-14T12:42:17;22.30;65.30
15113;DHT22;7657;50.140;7.076;2023-06-14T12:44:45;22.40;65.70
15113;DHT22;7657;50.140;7.076;2023-06-14T12:47:12;22.60;65.90
15113;DHT22;7657;50.140;7.076;2023-06-14T12:49:39;22.80;65.60
15113;DHT22;7657;50.140;7.076;2023-06-14T12:52:08;23.00;62.00
15113;DHT22;7657;50.140;7.076;2023-06-14T12:54:35;23.10;61.60
15113;DHT22;7657;50.140;7.076;2023-06-14T12:57:02;23.40;65.40
15113;DHT22;7657;50.140;7.076;2023-06-14T12:59:29;23.60;63.80
15113;DHT22;7657;50.140;7.076;2023-06-14T13:02:10;23.80;62.90
15113;DHT22;7657;50.140;7.076;2023-06-14T13:04:37;23.90;63.50
15113;DHT22;7657;50.140;7.076;2023-06-14T13:07:05;24.10;62.50
15113;DHT22;7657;50.140;7.076;2023-06-14T13:09:32;24.10;59.70
15113;DHT22;7657;50.140;7.076;2023-06-14T13:11:59;24.30;59.80
15113;DHT22;7657;50.140;7.076;2023-06-14T13:14:26;24.40;59.40
15113;DHT22;7657;50.140;7.076;2023-06-14T13:16:53;24.50;59.40
15113;DHT22;7657;50.140;7.076;2023-06-14T13:19:22;24.80;59.00
15113;DHT22;7657;50.140;7.076;2023-06-14T13:21:49;25.10;59.40
15113;DHT22;7657;50.140;7.076;2023-06-14T13:24:16;25.30;57.90
15113;DHT22;7657;50.140;7.076;2023-06-14T13:26:43;25.40;57.70
15113;DHT22;7657;50.140;7.076;2023-06-14T13:29:10;25.40;56.80
15113;DHT22;7657;50.140;7.076;2023-06-14T13:31:37;25.30;56.30
15113;DHT22;7657;50.140;7.076;2023-06-14T13:34:04;25.50;56.50
15113;DHT22;7657;50.140;7.076;2023-06-14T13:36:32;25.40;55.40
15113;DHT22;7657;50.140;7.076;2023-06-14T13:38:59;25.50;56.50
15113;DHT22;7657;50.140;7.076;2023-06-14T13:41:28;25.60;54.90
15113;DHT22;7657;50.140;7.076;2023-06-14T13:43:57;25.90;56.30
15113;DHT22;7657;50.140;7.076;2023-06-14T13:46:25;26.20;54.80
15113;DHT22;7657;50.140;7.076;2023-06-14T13:48:52;26.10;53.80
15113;DHT22;7657;50.140;7.076;2023-06-14T13:51:19;25.70;53.40
15113;DHT22;7657;50.140;7.076;2023-06-14T13:53:48;25.80;52.90
15113;DHT22;7657;50.140;7.076;2023-06-14T13:56:16;25.90;54.40
15113;DHT22;7657;50.140;7.076;2023-06-14T13:58:44;25.90;54.20
15113;DHT22;7657;50.140;7.076;2023-06-14T14:01:11;25.90;53.80
15113;DHT22;7657;50.140;7.076;2023-06-14T14:03:38;26.00;54.10
15113;DHT22;7657;50.140;7.076;2023-06-14T14:06:05;26.00;53.50
15113;DHT22;7657;50.140;7.076;2023-06-14T14:08:35;26.10;53.60
15113;DHT22;7657;50.140;7.076;2023-06-14T14:11:04;26.30;52.60
15113;DHT22;7657;50.140;7.076;2023-06-14T14:13:31;26.60;53.40
15113;DHT22;7657;50.140;7.076;2023-06-14T14:15:58;27.00;54.30
15113;DHT22;7657;50.140;7.076;2023-06-14T14:18:25;27.10;52.80
15113;DHT22;7657;50.140;7.076;2023-06-14T14:20:52;27.20;52.60
15113;DHT22;7657;50.140;7.076;2023-06-14T14:23:19;27.60;52.10
15113;DHT22;7657;50.140;7.076;2023-06-14T14:25:46;27.60;51.50
15113;DHT22;7657;50.140;7.076;2023-06-14T14:28:15;27.70;50.90
15113;DHT22;7657;50.140;7.076;2023-06-14T14:30:44;27.60;51.10
15113;DHT22;7657;50.140;7.076;2023-06-14T14:33:12;28.20;51.60
15113;DHT22;7657;50.140;7.076;2023-06-14T14:35:41;28.20;49.60
15113;DHT22;7657;50.140;7.076;2023-06-14T14:38:08;28.60;49.20
15113;DHT22;7657;50.140;7.076;2023-06-14T14:40:35;28.40;49.10
15113;DHT22;7657;50.140;7.076;2023-06-14T14:43:02;28.70;49.70
15113;DHT22;7657;50.140;7.076;2023-06-14T14:45:30;29.00;48.80
15113;DHT22;7657;50.140;7.076;2023-06-14T14:47:57;29.10;47.10
15113;DHT22;7657;50.140;7.076;2023-06-14T14:50:25;29.60;47.90
15113;DHT22;7657;50.140;7.076;2023-06-14T14:52:52;29.60;47.60
15113;DHT22;7657;50.140;7.076;2023-06-14T14:55:19;29.60;46.20
15113;DHT22;7657;50.140;7.076;2023-06-14T14:57:46;29.50;44.20
15113;DHT22;7657;50.140;7.076;2023-06-14T15:00:14;29.10;44.80
15113;DHT22;7657;50.140;7.076;2023-06-14T15:02:42;29.10;43.90
15113;DHT22;7657;50.140;7.076;2023-06-14T15:05:09;29.30;44.20
15113;DHT22;7657;50.140;7.076;2023-06-14T15:07:36;29.50;44.20
15113;DHT22;7657;50.140;7.076;2023-06-14T15:10:06;29.60;43.30
15113;DHT22;7657;50.140;7.076;2023-06-14T15:12:34;29.70;42.80
15113;DHT22;7657;50.140;7.076;2023-06-14T15:15:01;29.90;43.30
15113;DHT22;7657;50.140;7.076;2023-06-14T15:17:28;30.00;42.90
15113;DHT22;7657;50.140;7.076;2023-06-14T15:19:56;30.30;42.30
15113;DHT22;7657;50.140;7.076;2023-06-14T15:22:23;30.70;41.20
15113;DHT22;7657;50.140;7.076;2023-06-14T15:24:50;31.00;41.30
15113;DHT22;7657;50.140;7.076;2023-06-14T15:27:17;30.90;39.60
15113;DHT22;7657;50.140;7.076;2023-06-14T15:29:44;30.70;39.20
15113;DHT22;7657;50.140;7.076;2023-06-14T15:32:11;30.60;39.10
15113;DHT22;7657;50.140;7.076;2023-06-14T15:34:38;30.70;40.30
15113;DHT22;7657;50.140;7.076;2023-06-14T15:37:07;30.90;39.60
15113;DHT22;7657;50.140;7.076;2023-06-14T15:39:34;31.30;39.10
15113;DHT22;7657;50.140;7.076;2023-06-14T15:42:02;31.30;39.20
15113;DHT22;7657;50.140;7.076;2023-06-14T15:44:29;31.50;39.60
15113;DHT22;7657;50.140;7.076;2023-06-14T15:46:55;31.60;38.80
15113;DHT22;7657;50.140;7.076;2023-06-14T15:49:22;31.40;39.70
15113;DHT22;7657;50.140;7.076;2023-06-14T15:51:49;31.80;37.60
15113;DHT22;7657;50.140;7.076;2023-06-14T15:54:17;32.10;38.50
15113;DHT22;7657;50.140;7.076;2023-06-14T15:56:44;32.60;38.50